createdAt,value
2023-04-16T00:03:45.384Z,8.7
2023-04-16T00:08:51.231Z,8.6
2023-04-16T00:13:57.802Z,8.6
2023-04-16T00:19:04.367Z,8.6
2023-04-16T00:24:10.928Z,8.6
2023-04-16T00:29:17.500Z,8.5
2023-04-16T00:34:24.057Z,8.5
2023-04-16T00:39:30.649Z,8.4
2023-04-16T00:44:37.204Z,8.4
2023-04-16T00:49:43.783Z,8.4
2023-04-16T00:54:50.335Z,8.3
2023-04-16T00:59:56.932Z,8.3
2023-04-16T01:05:03.497Z,8.2
2023-04-16T01:10:10.062Z,8.2
2023-04-16T01:15:15.898Z,8.2
2023-04-16T01:20:22.472Z,8.2
2023-04-16T01:25:29.045Z,8.2
2023-04-16T01:30:35.625Z,8.2
2023-04-16T01:35:42.179Z,8.2
2023-04-16T01:40:48.757Z,8.1
2023-04-16T01:45:55.329Z,8.1
2023-04-16T01:51:01.909Z,8.1
2023-04-16T01:56:08.463Z,8.1
2023-04-16T02:01:15.044Z,8.1
2023-04-16T02:06:21.634Z,8
2023-04-16T02:11:28.194Z,8
2023-04-16T02:16:34.761Z,8
2023-04-16T02:21:40.588Z,8
2023-04-16T02:26:47.173Z,7.9
2023-04-16T02:31:53.715Z,7.9
2023-04-16T02:37:00.303Z,7.9
2023-04-16T02:42:06.880Z,7.9
2023-04-16T02:47:13.433Z,7.8
2023-04-16T02:52:20.017Z,7.8
2023-04-16T02:57:26.615Z,7.7
2023-04-16T03:02:33.175Z,7.7
2023-04-16T03:07:39.745Z,7.6
2023-04-16T03:12:46.313Z,7.6
2023-04-16T03:17:52.898Z,7.5
2023-04-16T03:22:59.458Z,7.5
2023-04-16T03:28:05.291Z,7.5
2023-04-16T03:33:11.871Z,7.4
2023-04-16T03:38:18.452Z,7.5
2023-04-16T03:43:25.010Z,7.4
2023-04-16T03:48:31.594Z,7.4
2023-04-16T03:53:38.168Z,7.4
2023-04-16T03:58:44.731Z,7.4
2023-04-16T04:03:51.304Z,7.4
2023-04-16T04:08:57.882Z,7.3
2023-04-16T04:14:04.461Z,7.4
2023-04-16T04:19:11.011Z,7.3
2023-04-16T04:24:16.861Z,7.3
2023-04-16T04:29:23.431Z,7.3
2023-04-16T04:34:29.998Z,7.3
2023-04-16T04:39:36.569Z,7.3
2023-04-16T04:44:43.146Z,7.3
2023-04-16T04:49:49.713Z,7.3
2023-04-16T04:54:56.297Z,7.3
2023-04-16T05:00:02.844Z,7.3
2023-04-16T05:05:09.448Z,7.3
2023-04-16T05:10:15.999Z,7.3
2023-04-16T05:15:22.572Z,7.3
2023-04-16T05:20:29.160Z,7.3
2023-04-16T05:25:35.731Z,7.3
2023-04-16T05:30:41.566Z,7.3
2023-04-16T05:35:48.126Z,7.3
2023-04-16T05:40:54.715Z,7.3
2023-04-16T05:46:01.268Z,7.3
2023-04-16T05:51:07.839Z,7.3
2023-04-16T05:56:14.448Z,7.3
2023-04-16T06:01:20.976Z,7.3
2023-04-16T06:06:27.550Z,7.4
2023-04-16T06:11:34.144Z,7.4
2023-04-16T06:16:40.702Z,7.4
2023-04-16T06:21:47.287Z,7.5
2023-04-16T06:26:53.824Z,7.5
2023-04-16T06:32:00.411Z,7.5
2023-04-16T06:37:06.248Z,7.6
2023-04-16T06:42:12.818Z,7.7
2023-04-16T06:47:19.409Z,7.7
2023-04-16T06:52:25.973Z,7.7
2023-04-16T06:57:32.560Z,7.8
2023-04-16T07:02:39.094Z,7.7
2023-04-16T07:07:45.689Z,7.8
2023-04-16T07:12:52.251Z,7.8
2023-04-16T07:17:58.828Z,7.9
2023-04-16T07:23:05.417Z,7.9
2023-04-16T07:28:11.999Z,8
2023-04-16T07:33:18.540Z,8
2023-04-16T07:38:25.112Z,8
2023-04-16T07:48:37.514Z,8
2023-04-16T07:53:44.083Z,8
2023-04-16T07:58:50.649Z,8
2023-04-16T08:03:57.228Z,8.1
2023-04-16T08:09:03.798Z,8.2
2023-04-16T08:14:10.377Z,8.3
2023-04-16T08:24:23.514Z,8.3
2023-04-16T08:29:30.108Z,8.3
2023-04-16T08:34:36.650Z,8.2
2023-04-16T08:39:43.240Z,8.3
2023-04-16T08:44:49.806Z,8.3
2023-04-16T08:49:55.647Z,8.3
2023-04-16T08:55:02.204Z,8.4
2023-04-16T09:00:08.793Z,8.7
2023-04-16T09:05:15.382Z,8.7
2023-04-16T09:10:21.914Z,8.7
2023-04-16T09:15:28.496Z,8.6
2023-04-16T09:20:35.065Z,8.5
2023-04-16T09:25:41.628Z,8.5
2023-04-16T09:30:48.205Z,8.7
2023-04-16T09:35:54.879Z,8.6
2023-04-16T09:41:01.339Z,8.7
2023-04-16T09:46:07.923Z,8.7
2023-04-16T09:51:14.475Z,8.6
2023-04-16T09:56:20.328Z,8.7
2023-04-16T10:01:26.915Z,8.9
2023-04-16T10:06:33.462Z,8.8
2023-04-16T10:11:40.077Z,8.8
2023-04-16T10:16:46.611Z,8.9
2023-04-16T10:21:53.191Z,8.8
2023-04-16T10:26:59.860Z,8.8
2023-04-16T10:32:06.381Z,8.7
2023-04-16T10:37:12.939Z,8.8
2023-04-16T10:42:19.655Z,8.7
2023-04-16T10:47:26.090Z,8.8
2023-04-16T10:52:32.688Z,8.9
2023-04-16T10:57:39.232Z,9
2023-04-16T11:02:45.064Z,8.9
2023-04-16T11:07:51.641Z,8.9
2023-04-16T11:12:58.199Z,9
2023-04-16T11:18:04.805Z,9.2
2023-04-16T11:23:11.334Z,9.4
2023-04-16T11:28:17.904Z,9.5
2023-04-16T11:33:24.466Z,9.5
2023-04-16T11:38:31.054Z,9.5
2023-04-16T11:43:37.618Z,9.8
2023-04-16T11:48:44.181Z,9.9
2023-04-16T11:53:50.750Z,9.8
2023-04-16T11:58:57.318Z,10.1
2023-04-16T12:04:03.899Z,10.6
2023-04-16T12:09:09.728Z,10.9
2023-04-16T12:14:16.298Z,10.9
2023-04-16T12:19:22.875Z,10.7
2023-04-16T12:24:29.441Z,10.3
2023-04-16T12:29:36.008Z,10.2
2023-04-16T12:34:42.589Z,10.1
2023-04-16T12:39:49.156Z,10.1
2023-04-16T12:44:55.715Z,9.9
2023-04-16T12:50:02.300Z,10.2
2023-04-16T12:55:08.894Z,10.6
2023-04-16T13:00:15.415Z,10.2
2023-04-16T13:05:21.987Z,9.8
2023-04-16T13:10:28.564Z,9.5
2023-04-16T13:15:34.408Z,9.3
2023-04-16T13:20:41.035Z,9.2
2023-04-16T13:25:47.574Z,9.2
2023-04-16T13:30:54.197Z,9.3
2023-04-16T13:36:00.777Z,9.5
2023-04-16T13:41:07.259Z,9.9
2023-04-16T13:46:13.939Z,9.9
2023-04-16T13:51:20.392Z,9.7
2023-04-16T13:56:27.046Z,9.3
2023-04-16T14:01:33.519Z,9.1
2023-04-16T14:06:40.111Z,9.1
2023-04-16T14:11:46.674Z,9.1
2023-04-16T14:16:53.249Z,9.2
2023-04-16T14:21:59.803Z,9.3
2023-04-16T14:27:05.656Z,9.4
2023-04-16T14:32:12.209Z,9.6
2023-04-16T14:37:18.792Z,9.8
2023-04-16T14:42:25.355Z,9.9
2023-04-16T14:47:31.943Z,10.2
2023-04-16T14:52:38.497Z,10.1
2023-04-16T14:57:45.058Z,10.2
2023-04-16T15:02:51.645Z,10.1
2023-04-16T15:07:58.196Z,10.1
2023-04-16T15:13:04.770Z,10.1
2023-04-16T15:18:11.347Z,10.2
2023-04-16T15:23:17.942Z,10
2023-04-16T15:28:24.508Z,9.8
2023-04-16T15:33:31.072Z,9.6
2023-04-16T15:43:43.472Z,9.4
2023-04-16T15:48:50.038Z,9.4
2023-04-16T15:53:56.711Z,9.3
2023-04-16T15:59:03.172Z,9.3
2023-04-16T16:04:09.739Z,9.4
2023-04-16T16:09:16.334Z,9.4
2023-04-16T16:14:22.876Z,9.4
2023-04-16T16:19:29.454Z,9.4
2023-04-16T16:24:36.009Z,9.4
2023-04-16T16:29:42.600Z,9.3
2023-04-16T16:34:49.157Z,9.3
2023-04-16T16:39:55.720Z,9.3
2023-04-16T16:45:01.570Z,9.2
2023-04-16T16:50:08.128Z,9.2
2023-04-16T16:55:14.728Z,9.2
2023-04-16T17:00:21.275Z,9.1
2023-04-16T17:05:27.845Z,9.1
2023-04-16T17:10:34.413Z,9.1
2023-04-16T17:15:40.980Z,9.1
2023-04-16T17:20:47.556Z,9
2023-04-16T17:25:54.136Z,9
2023-04-16T17:31:00.684Z,9
2023-04-16T17:36:07.277Z,8.9
2023-04-16T17:41:13.832Z,8.9
2023-04-16T17:46:20.406Z,8.8
2023-04-16T17:51:26.965Z,8.8
2023-04-16T17:56:32.801Z,8.8
2023-04-16T18:01:39.373Z,8.8
2023-04-16T18:06:46.123Z,8.7
2023-04-16T18:11:52.529Z,8.7
2023-04-16T18:16:59.117Z,8.6
2023-04-16T18:22:05.652Z,8.6
2023-04-16T18:27:12.226Z,8.6
2023-04-16T18:32:18.794Z,8.5
2023-04-16T18:37:25.387Z,8.5
2023-04-16T18:42:31.957Z,8.4
2023-04-16T18:47:38.512Z,8.4
2023-04-16T18:52:45.089Z,8.4
2023-04-16T18:57:51.649Z,8.3
2023-04-16T19:02:57.505Z,8.3
2023-04-16T19:08:04.074Z,8.3
2023-04-16T19:13:10.669Z,8.2
2023-04-16T19:18:17.214Z,8.2
2023-04-16T19:23:23.782Z,8.2
2023-04-16T19:33:36.951Z,8.1
2023-04-16T19:38:43.491Z,8
2023-04-16T19:43:50.075Z,8
2023-04-16T19:48:56.678Z,8
2023-04-16T19:54:03.204Z,7.9
2023-04-16T19:59:09.773Z,7.9
2023-04-16T20:04:16.373Z,7.9
2023-04-16T20:09:22.197Z,7.9
2023-04-16T20:14:28.762Z,7.9
2023-04-16T20:19:35.461Z,7.9
2023-04-16T20:24:41.911Z,7.8
2023-04-16T20:29:48.491Z,7.7
2023-04-16T20:34:55.055Z,7.7
2023-04-16T20:40:01.619Z,7.7
2023-04-16T20:45:08.278Z,7.7
2023-04-16T20:50:14.764Z,7.7
2023-04-16T20:55:21.329Z,7.6
2023-04-16T21:00:27.915Z,7.6
2023-04-16T21:05:34.541Z,7.6
2023-04-16T21:10:41.055Z,7.6
2023-04-16T21:15:46.895Z,7.6
2023-04-16T21:20:53.479Z,7.6
2023-04-16T21:26:00.039Z,7.6
2023-04-16T21:31:05.858Z,7.5
2023-04-16T21:36:12.478Z,7.5
2023-04-16T21:41:19.047Z,7.4
2023-04-16T21:46:25.601Z,7.3
2023-04-16T21:51:32.207Z,7.2
2023-04-16T21:56:38.771Z,7.1
2023-04-16T22:01:45.339Z,7.1
2023-04-16T22:06:51.888Z,7
2023-04-16T22:11:58.465Z,7
2023-04-16T22:17:05.072Z,7
2023-04-16T22:22:11.629Z,7
2023-04-16T22:27:18.181Z,7
2023-04-16T22:32:24.727Z,7
2023-04-16T22:37:30.571Z,7
2023-04-16T22:42:37.136Z,7
2023-04-16T22:47:43.723Z,6.9
2023-04-16T22:52:50.293Z,6.9
2023-04-16T22:57:56.858Z,6.9
2023-04-16T23:03:03.435Z,6.9
2023-04-16T23:08:10.018Z,6.9
2023-04-16T23:13:16.588Z,6.9
2023-04-16T23:18:23.143Z,6.8
2023-04-16T23:23:29.717Z,6.8
2023-04-16T23:28:36.279Z,6.8
2023-04-16T23:33:42.838Z,6.8
2023-04-16T23:38:49.421Z,6.8
2023-04-16T23:43:55.269Z,6.8
2023-04-16T23:49:01.864Z,6.7
2023-04-16T23:54:08.396Z,6.7
2023-04-16T23:59:15.017Z,6.6
